VOZ1139 YSSY-YBNA
Flight info
| Callsign | VOZ1139 |
|---|---|
| Flight time | 1h 0m |
| Altitude | 35000 |
| Route | OLSEM Y193 BNA |
| Aircraft | B738/M-SDE2E3FGHIRWXY/LB1 |
Departure
| Time | 2026-05-09 02:04 |
|---|---|
| Airport | Sydney Kingsford Smith International Airport (YSSY) |
Arrival
| Time | 2026-05-09 03:04 |
|---|---|
| Airport | Ballina Byron Gateway Airport (YBNA) |
| Time | Latitude | Longitude | Altitude | Speed | Heading |
|---|---|---|---|---|---|
| 2026-05-09 01:39 | -33.93675 | 151.17984 | 14 ft | 0 kts | 280° |
| 2026-05-09 01:53 | -33.93676 | 151.17994 | 29 ft | 4 kts | 277° |
| 2026-05-09 01:53 | -33.93676 | 151.18025 | 29 ft | 4 kts | 250° |
| 2026-05-09 01:54 | -33.93663 | 151.18045 | 29 ft | 4 kts | 187° |
| 2026-05-09 01:54 | -33.93655 | 151.18046 | 29 ft | 1 kts | 169° |
| 2026-05-09 01:57 | -33.93663 | 151.18048 | 29 ft | 6 kts | 169° |
| 2026-05-09 01:57 | -33.93703 | 151.18057 | 29 ft | 1 kts | 168° |
| 2026-05-09 01:59 | -33.93747 | 151.18062 | 29 ft | 12 kts | 191° |
| 2026-05-09 01:59 | -33.93795 | 151.17964 | 29 ft | 19 kts | 255° |
| 2026-05-09 02:00 | -33.93833 | 151.17813 | 29 ft | 17 kts | 249° |
| 2026-05-09 02:00 | -33.93937 | 151.17790 | 28 ft | 19 kts | 168° |
| 2026-05-09 02:00 | -33.94091 | 151.17831 | 28 ft | 24 kts | 168° |
| 2026-05-09 02:00 | -33.94248 | 151.17871 | 29 ft | 23 kts | 168° |
| 2026-05-09 02:01 | -33.94399 | 151.17909 | 29 ft | 22 kts | 169° |
| 2026-05-09 02:01 | -33.94536 | 151.17886 | 29 ft | 20 kts | 169° |
| 2026-05-09 02:01 | -33.94669 | 151.17920 | 29 ft | 19 kts | 166° |
| 2026-05-09 02:01 | -33.94808 | 151.17956 | 29 ft | 22 kts | 170° |
| 2026-05-09 02:02 | -33.94965 | 151.17995 | 29 ft | 24 kts | 164° |
| 2026-05-09 02:02 | -33.95095 | 151.18073 | 29 ft | 20 kts | 107° |
| 2026-05-09 02:02 | -33.95075 | 151.18234 | 29 ft | 17 kts | 80° |
| 2026-05-09 02:02 | -33.95050 | 151.18379 | 29 ft | 18 kts | 77° |
| 2026-05-09 02:03 | -33.95022 | 151.18524 | 29 ft | 18 kts | 77° |
| 2026-05-09 02:03 | -33.94996 | 151.18672 | 28 ft | 19 kts | 77° |
| 2026-05-09 02:03 | -33.95011 | 151.18834 | 25 ft | 21 kts | 139° |
| 2026-05-09 02:03 | -33.95155 | 151.18879 | 24 ft | 24 kts | 167° |
| 2026-05-09 02:04 | -33.95514 | 151.18973 | 26 ft | 95 kts | 169° |
| 2026-05-09 02:04 | -33.96422 | 151.19210 | 91 ft | 166 kts | 168° |
| 2026-05-09 02:04 | -33.97606 | 151.19513 | 1015 ft | 179 kts | 168° |
| 2026-05-09 02:04 | -33.98743 | 151.20192 | 2044 ft | 193 kts | 137° |
| 2026-05-09 02:05 | -33.99469 | 151.21685 | 2504 ft | 227 kts | 113° |
| 2026-05-09 02:05 | -34.00098 | 151.23512 | 2965 ft | 239 kts | 120° |
| 2026-05-09 02:05 | -34.01112 | 151.25059 | 3791 ft | 236 kts | 142° |
| 2026-05-09 02:05 | -34.02458 | 151.26277 | 4254 ft | 257 kts | 143° |
| 2026-05-09 02:06 | -34.03921 | 151.27615 | 4955 ft | 265 kts | 142° |
| 2026-05-09 02:06 | -34.05364 | 151.28982 | 5907 ft | 264 kts | 141° |
| 2026-05-09 02:06 | -34.06809 | 151.30372 | 6766 ft | 268 kts | 142° |
| 2026-05-09 02:07 | -34.09792 | 151.33225 | 8233 ft | 279 kts | 139° |
| 2026-05-09 02:07 | -34.11131 | 151.34929 | 9068 ft | 285 kts | 127° |
| 2026-05-09 02:07 | -34.11901 | 151.37143 | 9941 ft | 290 kts | 101° |
| 2026-05-09 02:07 | -34.11745 | 151.39623 | 10436 ft | 311 kts | 72° |
| 2026-05-09 02:08 | -34.10541 | 151.41845 | 10897 ft | 325 kts | 46° |
| 2026-05-09 02:08 | -34.08912 | 151.43773 | 11612 ft | 329 kts | 45° |
| 2026-05-09 02:08 | -34.07288 | 151.45731 | 12355 ft | 332 kts | 44° |
| 2026-05-09 02:08 | -34.05360 | 151.47280 | 13042 ft | 337 kts | 21° |
| 2026-05-09 02:09 | -34.03113 | 151.48106 | 13820 ft | 339 kts | 14° |
| 2026-05-09 02:09 | -34.00818 | 151.48824 | 14475 ft | 343 kts | 13° |
| 2026-05-09 02:09 | -33.98489 | 151.49544 | 15143 ft | 346 kts | 13° |
| 2026-05-09 02:09 | -33.96143 | 151.50286 | 15817 ft | 349 kts | 14° |
| 2026-05-09 02:10 | -33.93788 | 151.51048 | 16489 ft | 352 kts | 14° |
| 2026-05-09 02:10 | -33.91407 | 151.51825 | 17139 ft | 356 kts | 14° |
| 2026-05-09 02:10 | -33.89034 | 151.52602 | 17775 ft | 360 kts | 14° |
| 2026-05-09 02:10 | -33.86605 | 151.53396 | 18417 ft | 363 kts | 14° |
| 2026-05-09 02:11 | -33.84149 | 151.54198 | 18989 ft | 367 kts | 14° |
| 2026-05-09 02:11 | -33.81677 | 151.55004 | 19566 ft | 369 kts | 14° |
| 2026-05-09 02:11 | -33.79182 | 151.55818 | 20152 ft | 372 kts | 14° |
| 2026-05-09 02:11 | -33.76682 | 151.56633 | 20717 ft | 375 kts | 14° |
| 2026-05-09 02:12 | -33.74152 | 151.57457 | 21267 ft | 378 kts | 14° |
| 2026-05-09 02:12 | -33.71603 | 151.58287 | 21815 ft | 381 kts | 14° |
| 2026-05-09 02:12 | -33.69033 | 151.59123 | 22353 ft | 384 kts | 14° |
| 2026-05-09 02:12 | -33.66443 | 151.59965 | 22899 ft | 387 kts | 15° |
| 2026-05-09 02:13 | -33.63910 | 151.61071 | 23397 ft | 390 kts | 30° |
| 2026-05-09 02:13 | -33.61625 | 151.62840 | 23929 ft | 392 kts | 35° |
| 2026-05-09 02:13 | -33.59372 | 151.64703 | 24388 ft | 394 kts | 35° |
| 2026-05-09 02:13 | -33.57108 | 151.66563 | 24846 ft | 396 kts | 35° |
| 2026-05-09 02:14 | -33.54812 | 151.68407 | 25306 ft | 398 kts | 34° |
| 2026-05-09 02:14 | -33.52502 | 151.70236 | 25763 ft | 399 kts | 34° |
| 2026-05-09 02:14 | -33.50131 | 151.71996 | 26156 ft | 403 kts | 28° |
| 2026-05-09 02:14 | -33.47553 | 151.73317 | 26585 ft | 405 kts | 17° |
| 2026-05-09 02:15 | -33.44824 | 151.74191 | 27025 ft | 406 kts | 14° |
| 2026-05-09 02:15 | -33.42068 | 151.74999 | 27414 ft | 409 kts | 14° |
| 2026-05-09 02:15 | -33.39300 | 151.75837 | 27840 ft | 411 kts | 14° |
| 2026-05-09 02:15 | -33.37470 | 151.76407 | 28147 ft | 411 kts | 15° |
| 2026-05-09 02:16 | -33.33811 | 151.77574 | 28777 ft | 411 kts | 15° |
| 2026-05-09 02:16 | -33.31045 | 151.78469 | 29156 ft | 413 kts | 15° |
| 2026-05-09 02:16 | -33.28263 | 151.79373 | 29569 ft | 414 kts | 15° |
| 2026-05-09 02:16 | -33.25473 | 151.80277 | 29990 ft | 415 kts | 15° |
| 2026-05-09 02:17 | -33.22685 | 151.81180 | 30366 ft | 417 kts | 15° |
| 2026-05-09 02:17 | -33.19881 | 151.82086 | 30664 ft | 419 kts | 15° |
| 2026-05-09 02:17 | -33.17974 | 151.82702 | 30850 ft | 420 kts | 15° |
| 2026-05-09 02:17 | -33.15138 | 151.83615 | 31115 ft | 423 kts | 15° |
| 2026-05-09 02:18 | -33.12327 | 151.84520 | 31384 ft | 425 kts | 15° |
| 2026-05-09 02:18 | -33.09457 | 151.85443 | 31652 ft | 427 kts | 15° |
| 2026-05-09 02:18 | -33.06582 | 151.86367 | 31901 ft | 429 kts | 15° |
| 2026-05-09 02:18 | -33.03687 | 151.87297 | 32145 ft | 432 kts | 15° |
| 2026-05-09 02:19 | -33.00778 | 151.88231 | 32370 ft | 434 kts | 16° |
| 2026-05-09 02:19 | -32.97852 | 151.89169 | 32606 ft | 436 kts | 16° |
| 2026-05-09 02:19 | -32.94915 | 151.90110 | 32874 ft | 437 kts | 15° |
| 2026-05-09 02:19 | -32.91973 | 151.91052 | 33101 ft | 440 kts | 15° |
| 2026-05-09 02:20 | -32.89024 | 151.91995 | 33252 ft | 439 kts | 15° |
| 2026-05-09 02:20 | -32.83043 | 151.93908 | 33275 ft | 450 kts | 15° |
| 2026-05-09 02:21 | -32.76932 | 151.95859 | 33282 ft | 460 kts | 15° |
| 2026-05-09 02:21 | -32.70703 | 151.97844 | 33271 ft | 466 kts | 15° |
| 2026-05-09 02:22 | -32.64392 | 151.99853 | 33281 ft | 471 kts | 15° |
| 2026-05-09 02:22 | -32.58065 | 152.01864 | 33279 ft | 476 kts | 15° |
| 2026-05-09 02:23 | -32.51671 | 152.03892 | 33269 ft | 475 kts | 15° |
| 2026-05-09 02:23 | -32.45309 | 152.05909 | 33268 ft | 471 kts | 15° |
| 2026-05-09 02:24 | -32.39008 | 152.07902 | 33264 ft | 467 kts | 15° |
| 2026-05-09 02:24 | -32.32739 | 152.09883 | 33268 ft | 464 kts | 15° |
| 2026-05-09 02:25 | -32.26483 | 152.11857 | 33279 ft | 467 kts | 15° |
| 2026-05-09 02:25 | -32.20180 | 152.13844 | 33282 ft | 472 kts | 14° |
| 2026-05-09 02:26 | -32.13800 | 152.15851 | 33273 ft | 477 kts | 14° |
| 2026-05-09 02:26 | -32.07413 | 152.17857 | 33260 ft | 472 kts | 14° |
| 2026-05-09 02:27 | -32.01113 | 152.19835 | 33260 ft | 465 kts | 14° |
| 2026-05-09 02:27 | -31.94902 | 152.21780 | 33267 ft | 465 kts | 14° |
| 2026-05-09 02:28 | -31.88642 | 152.23738 | 33266 ft | 465 kts | 14° |
| 2026-05-09 02:28 | -31.82392 | 152.25690 | 33262 ft | 465 kts | 14° |
| 2026-05-09 02:29 | -31.76128 | 152.27645 | 33267 ft | 465 kts | 13° |
| 2026-05-09 02:29 | -31.69867 | 152.29595 | 33262 ft | 466 kts | 13° |
| 2026-05-09 02:30 | -31.63601 | 152.31545 | 33257 ft | 466 kts | 13° |
| 2026-05-09 02:30 | -31.57333 | 152.33491 | 33253 ft | 466 kts | 13° |
| 2026-05-09 02:31 | -31.51064 | 152.35436 | 33258 ft | 466 kts | 13° |
| 2026-05-09 02:31 | -31.44808 | 152.37374 | 33268 ft | 465 kts | 13° |
| 2026-05-09 02:32 | -31.38545 | 152.39312 | 33265 ft | 465 kts | 13° |
| 2026-05-09 02:32 | -31.32284 | 152.41246 | 33255 ft | 465 kts | 13° |
| 2026-05-09 02:33 | -31.26016 | 152.43180 | 33260 ft | 465 kts | 12° |
| 2026-05-09 02:33 | -31.19800 | 152.45095 | 33252 ft | 465 kts | 12° |
| 2026-05-09 02:34 | -31.13537 | 152.47022 | 33254 ft | 465 kts | 12° |
| 2026-05-09 02:34 | -31.07277 | 152.48946 | 33262 ft | 466 kts | 12° |
| 2026-05-09 02:35 | -31.00996 | 152.50873 | 33253 ft | 467 kts | 12° |
| 2026-05-09 02:35 | -30.94843 | 152.52763 | 33239 ft | 442 kts | 12° |
| 2026-05-09 02:36 | -30.88994 | 152.54554 | 33246 ft | 432 kts | 11° |
| 2026-05-09 02:36 | -30.86081 | 152.55442 | 33023 ft | 435 kts | 12° |
| 2026-05-09 02:36 | -30.83163 | 152.56333 | 32715 ft | 431 kts | 12° |
| 2026-05-09 02:36 | -30.80278 | 152.57216 | 32300 ft | 427 kts | 12° |
| 2026-05-09 02:37 | -30.77443 | 152.58191 | 31922 ft | 424 kts | 15° |
| 2026-05-09 02:37 | -30.74651 | 152.59256 | 31528 ft | 421 kts | 16° |
| 2026-05-09 02:37 | -30.71889 | 152.60353 | 31142 ft | 418 kts | 17° |
| 2026-05-09 02:37 | -30.69147 | 152.61450 | 30752 ft | 415 kts | 17° |
| 2026-05-09 02:38 | -30.66419 | 152.62536 | 30368 ft | 413 kts | 17° |
| 2026-05-09 02:38 | -30.63708 | 152.63606 | 29914 ft | 410 kts | 17° |
| 2026-05-09 02:38 | -30.61015 | 152.64662 | 29483 ft | 407 kts | 17° |
| 2026-05-09 02:38 | -30.58340 | 152.65704 | 29088 ft | 403 kts | 17° |
| 2026-05-09 02:39 | -30.55693 | 152.66732 | 28705 ft | 399 kts | 17° |
| 2026-05-09 02:39 | -30.53067 | 152.67749 | 28295 ft | 396 kts | 17° |
| 2026-05-09 02:39 | -30.50464 | 152.68757 | 27918 ft | 392 kts | 17° |
| 2026-05-09 02:39 | -30.47882 | 152.69754 | 27518 ft | 389 kts | 17° |
| 2026-05-09 02:40 | -30.45323 | 152.70743 | 27139 ft | 387 kts | 17° |
| 2026-05-09 02:40 | -30.42779 | 152.71725 | 26755 ft | 384 kts | 17° |
| 2026-05-09 02:40 | -30.40287 | 152.72687 | 26388 ft | 381 kts | 17° |
| 2026-05-09 02:40 | -30.37774 | 152.73656 | 26015 ft | 379 kts | 17° |
| 2026-05-09 02:41 | -30.35244 | 152.74632 | 25635 ft | 377 kts | 17° |
| 2026-05-09 02:41 | -30.32761 | 152.75589 | 25268 ft | 376 kts | 17° |
| 2026-05-09 02:41 | -30.30315 | 152.76531 | 24915 ft | 374 kts | 17° |
| 2026-05-09 02:41 | -30.27851 | 152.77479 | 24541 ft | 373 kts | 17° |
| 2026-05-09 02:42 | -30.25396 | 152.78423 | 24170 ft | 371 kts | 17° |
| 2026-05-09 02:42 | -30.22946 | 152.79365 | 23801 ft | 370 kts | 17° |
| 2026-05-09 02:42 | -30.20511 | 152.80301 | 23377 ft | 368 kts | 17° |
| 2026-05-09 02:42 | -30.18084 | 152.81233 | 22983 ft | 366 kts | 17° |
| 2026-05-09 02:43 | -30.15679 | 152.82155 | 22600 ft | 363 kts | 17° |
| 2026-05-09 02:43 | -30.13291 | 152.83072 | 22244 ft | 360 kts | 17° |
| 2026-05-09 02:43 | -30.10915 | 152.83984 | 21877 ft | 358 kts | 17° |
| 2026-05-09 02:43 | -30.08600 | 152.84872 | 21525 ft | 355 kts | 17° |
| 2026-05-09 02:44 | -30.06261 | 152.85768 | 21173 ft | 353 kts | 17° |
| 2026-05-09 02:44 | -30.03936 | 152.86659 | 20817 ft | 351 kts | 17° |
| 2026-05-09 02:44 | -30.01623 | 152.87544 | 20473 ft | 349 kts | 17° |
| 2026-05-09 02:44 | -29.99322 | 152.88424 | 20131 ft | 348 kts | 17° |
| 2026-05-09 02:45 | -29.97034 | 152.89299 | 19782 ft | 346 kts | 18° |
| 2026-05-09 02:45 | -29.94749 | 152.90172 | 19433 ft | 345 kts | 18° |
| 2026-05-09 02:45 | -29.92500 | 152.91031 | 19093 ft | 344 kts | 18° |
| 2026-05-09 02:45 | -29.90233 | 152.91897 | 18751 ft | 342 kts | 18° |
| 2026-05-09 02:46 | -29.87974 | 152.92759 | 18386 ft | 342 kts | 18° |
| 2026-05-09 02:46 | -29.85718 | 152.93620 | 18004 ft | 340 kts | 18° |
| 2026-05-09 02:46 | -29.83475 | 152.94475 | 17630 ft | 339 kts | 18° |
| 2026-05-09 02:46 | -29.81248 | 152.95324 | 17288 ft | 336 kts | 18° |
| 2026-05-09 02:47 | -29.79033 | 152.96169 | 16943 ft | 335 kts | 18° |
| 2026-05-09 02:47 | -29.76829 | 152.97008 | 16602 ft | 333 kts | 18° |
| 2026-05-09 02:47 | -29.74634 | 152.97843 | 16261 ft | 331 kts | 18° |
| 2026-05-09 02:47 | -29.72457 | 152.98671 | 15925 ft | 329 kts | 17° |
| 2026-05-09 02:48 | -29.70289 | 152.99495 | 15594 ft | 327 kts | 17° |
| 2026-05-09 02:48 | -29.68127 | 153.00317 | 15261 ft | 326 kts | 17° |
| 2026-05-09 02:48 | -29.65979 | 153.01133 | 14929 ft | 325 kts | 17° |
| 2026-05-09 02:48 | -29.63834 | 153.01948 | 14602 ft | 324 kts | 17° |
| 2026-05-09 02:49 | -29.61694 | 153.02760 | 14271 ft | 323 kts | 17° |
| 2026-05-09 02:49 | -29.59563 | 153.03568 | 13920 ft | 322 kts | 17° |
| 2026-05-09 02:49 | -29.57435 | 153.04376 | 13560 ft | 321 kts | 17° |
| 2026-05-09 02:49 | -29.55345 | 153.05168 | 13219 ft | 320 kts | 17° |
| 2026-05-09 02:50 | -29.53234 | 153.05967 | 12877 ft | 318 kts | 17° |
| 2026-05-09 02:50 | -29.51133 | 153.06763 | 12544 ft | 317 kts | 17° |
| 2026-05-09 02:50 | -29.49039 | 153.07556 | 12222 ft | 316 kts | 17° |
| 2026-05-09 02:50 | -29.46960 | 153.08343 | 11888 ft | 314 kts | 17° |
| 2026-05-09 02:51 | -29.44889 | 153.09127 | 11568 ft | 313 kts | 17° |
| 2026-05-09 02:51 | -29.42820 | 153.09909 | 11246 ft | 312 kts | 17° |
| 2026-05-09 02:51 | -29.40764 | 153.10687 | 10926 ft | 311 kts | 17° |
| 2026-05-09 02:51 | -29.38711 | 153.11463 | 10621 ft | 310 kts | 17° |
| 2026-05-09 02:52 | -29.36685 | 153.12228 | 10489 ft | 303 kts | 17° |
| 2026-05-09 02:52 | -29.34690 | 153.12980 | 10186 ft | 303 kts | 17° |
| 2026-05-09 02:52 | -29.32696 | 153.13729 | 9881 ft | 301 kts | 17° |
| 2026-05-09 02:52 | -29.30750 | 153.14463 | 9648 ft | 291 kts | 17° |
| 2026-05-09 02:53 | -29.28842 | 153.15187 | 9321 ft | 285 kts | 17° |
| 2026-05-09 02:53 | -29.26974 | 153.15892 | 9023 ft | 280 kts | 17° |
| 2026-05-09 02:53 | -29.25131 | 153.16585 | 8724 ft | 276 kts | 18° |
| 2026-05-09 02:53 | -29.23321 | 153.17266 | 8446 ft | 272 kts | 18° |
| 2026-05-09 02:54 | -29.21533 | 153.17938 | 8180 ft | 268 kts | 18° |
| 2026-05-09 02:54 | -29.19777 | 153.18598 | 7920 ft | 264 kts | 18° |
| 2026-05-09 02:54 | -29.18044 | 153.19250 | 7671 ft | 262 kts | 18° |
| 2026-05-09 02:54 | -29.16301 | 153.19902 | 7416 ft | 265 kts | 18° |
| 2026-05-09 02:55 | -29.14557 | 153.20559 | 7167 ft | 270 kts | 18° |
| 2026-05-09 02:55 | -29.12752 | 153.21236 | 6914 ft | 275 kts | 19° |
| 2026-05-09 02:55 | -29.10943 | 153.21917 | 6594 ft | 273 kts | 19° |
| 2026-05-09 02:55 | -29.09141 | 153.22593 | 6307 ft | 271 kts | 19° |
| 2026-05-09 02:56 | -29.07359 | 153.23260 | 6051 ft | 268 kts | 19° |
| 2026-05-09 02:56 | -29.05591 | 153.23924 | 5745 ft | 267 kts | 20° |
| 2026-05-09 02:56 | -29.03838 | 153.24585 | 5477 ft | 264 kts | 19° |
| 2026-05-09 02:56 | -29.02099 | 153.25237 | 5233 ft | 260 kts | 20° |
| 2026-05-09 02:57 | -29.00379 | 153.25882 | 4988 ft | 258 kts | 20° |
| 2026-05-09 02:57 | -28.98686 | 153.26520 | 4736 ft | 253 kts | 20° |
| 2026-05-09 02:57 | -28.97069 | 153.27125 | 4620 ft | 236 kts | 20° |
| 2026-05-09 02:57 | -28.95570 | 153.27685 | 4526 ft | 219 kts | 20° |
| 2026-05-09 02:58 | -28.94165 | 153.28206 | 4377 ft | 205 kts | 20° |
| 2026-05-09 02:58 | -28.92852 | 153.28695 | 4290 ft | 194 kts | 20° |
| 2026-05-09 02:58 | -28.91576 | 153.29175 | 4250 ft | 191 kts | 21° |
| 2026-05-09 02:58 | -28.90482 | 153.29970 | 4045 ft | 187 kts | 61° |
| 2026-05-09 02:59 | -28.90038 | 153.31316 | 3920 ft | 183 kts | 73° |
| 2026-05-09 02:59 | -28.89568 | 153.32702 | 3721 ft | 189 kts | 72° |
| 2026-05-09 02:59 | -28.89136 | 153.34094 | 3498 ft | 179 kts | 75° |
| 2026-05-09 02:59 | -28.88778 | 153.35368 | 3298 ft | 164 kts | 75° |
| 2026-05-09 03:00 | -28.88442 | 153.36608 | 3236 ft | 167 kts | 76° |
| 2026-05-09 03:00 | -28.88129 | 153.37894 | 3090 ft | 167 kts | 78° |
| 2026-05-09 03:00 | -28.87907 | 153.38726 | 2994 ft | 163 kts | 76° |
| 2026-05-09 03:00 | -28.87482 | 153.40344 | 2683 ft | 159 kts | 75° |
| 2026-05-09 03:01 | -28.87233 | 153.41163 | 2529 ft | 163 kts | 76° |
| 2026-05-09 03:01 | -28.86893 | 153.42349 | 2334 ft | 150 kts | 76° |
| 2026-05-09 03:01 | -28.86577 | 153.43535 | 2257 ft | 164 kts | 78° |
| 2026-05-09 03:01 | -28.86260 | 153.44779 | 2108 ft | 158 kts | 75° |
| 2026-05-09 03:02 | -28.85862 | 153.46308 | 1790 ft | 152 kts | 80° |
| 2026-05-09 03:02 | -28.85685 | 153.47127 | 1633 ft | 162 kts | 82° |
| 2026-05-09 03:02 | -28.85405 | 153.48346 | 1383 ft | 157 kts | 73° |
| 2026-05-09 03:02 | -28.85078 | 153.49523 | 1179 ft | 153 kts | 76° |
| 2026-05-09 03:03 | -28.84763 | 153.50679 | 980 ft | 153 kts | 77° |
| 2026-05-09 03:03 | -28.84438 | 153.51898 | 693 ft | 166 kts | 76° |
| 2026-05-09 03:03 | -28.84106 | 153.53119 | 443 ft | 154 kts | 77° |
| 2026-05-09 03:03 | -28.83803 | 153.54290 | 206 ft | 156 kts | 77° |
| 2026-05-09 03:04 | -28.83497 | 153.55455 | 16 ft | 145 kts | 77° |
| 2026-05-09 03:04 | -28.83260 | 153.56368 | 16 ft | 89 kts | 73° |
| 2026-05-09 03:04 | -28.83146 | 153.56802 | 14 ft | 29 kts | 74° |
| 2026-05-09 03:04 | -28.83097 | 153.56979 | 15 ft | 17 kts | 63° |
| 2026-05-09 03:05 | -28.83083 | 153.57017 | 16 ft | 1 kts | 146° |
| 2026-05-09 03:05 | -28.83104 | 153.56971 | 15 ft | 19 kts | 253° |
| 2026-05-09 03:05 | -28.83161 | 153.56743 | 14 ft | 34 kts | 256° |
| 2026-05-09 03:05 | -28.83226 | 153.56490 | 14 ft | 32 kts | 252° |
| 2026-05-09 03:06 | -28.83291 | 153.56260 | 18 ft | 29 kts | 252° |
| 2026-05-09 03:06 | -28.83351 | 153.56046 | 16 ft | 28 kts | 253° |
| 2026-05-09 03:06 | -28.83400 | 153.55842 | 15 ft | 26 kts | 255° |
| 2026-05-09 03:06 | -28.83448 | 153.55673 | 16 ft | 16 kts | 230° |
| 2026-05-09 03:07 | -28.83528 | 153.55673 | 14 ft | 11 kts | 164° |
| 2026-05-09 03:07 | -28.83599 | 153.55692 | 16 ft | 10 kts | 176° |
| 2026-05-09 03:07 | -28.83640 | 153.55662 | 16 ft | 3 kts | 226° |
| 2026-05-09 03:07 | -28.83654 | 153.55654 | 16 ft | 2 kts | 195° |
| 2026-05-09 03:08 | -28.83660 | 153.55650 | 15 ft | 1 kts | 217° |
| 2026-05-09 03:08 | -28.83663 | 153.55647 | 14 ft | 0 kts | 223° |
| 2026-05-09 03:13 | -28.83676 | 153.55628 | 14 ft | 0 kts | 252° |